createdAt,value
2022-07-28T00:02:02.109Z,49.80
2022-07-28T00:04:31.419Z,49.80
2022-07-28T00:06:59.486Z,50.00
2022-07-28T00:09:29.284Z,49.70
2022-07-28T00:11:57.202Z,49.80
2022-07-28T00:14:25.457Z,49.80
2022-07-28T00:16:53.536Z,49.70
2022-07-28T00:19:21.492Z,49.70
2022-07-28T00:21:50.769Z,49.70
2022-07-28T00:24:18.671Z,49.70
2022-07-28T00:26:46.939Z,49.70
2022-07-28T00:29:14.876Z,49.60
2022-07-28T00:31:42.868Z,49.70
2022-07-28T00:34:12.388Z,49.70
2022-07-28T00:36:40.560Z,49.80
2022-07-28T00:39:10.419Z,49.80
2022-07-28T00:41:38.359Z,49.90
2022-07-28T00:44:07.777Z,49.80
2022-07-28T00:46:36.643Z,49.90
2022-07-28T00:49:05.191Z,49.90
2022-07-28T00:51:33.432Z,50.00
2022-07-28T00:54:01.641Z,50.00
2022-07-28T00:56:31.429Z,50.00
2022-07-28T00:58:59.295Z,49.90
2022-07-28T01:01:27.288Z,49.80
2022-07-28T01:03:57.227Z,49.80
2022-07-28T01:06:48.730Z,49.80
2022-07-28T01:09:27.425Z,50.20
2022-07-28T01:12:12.324Z,50.00
2022-07-28T01:14:45.835Z,50.20
2022-07-28T01:17:25.858Z,49.80
2022-07-28T01:20:05.907Z,50.00
2022-07-28T01:22:38.540Z,49.80
2022-07-28T01:25:17.759Z,49.70
2022-07-28T01:27:59.877Z,50.00
2022-07-28T01:30:40.302Z,50.10
2022-07-28T01:33:15.869Z,50.00
2022-07-28T01:35:47.361Z,49.90
2022-07-28T01:38:16.477Z,49.80
2022-07-28T01:40:46.400Z,49.80
2022-07-28T01:43:22.179Z,49.80
2022-07-28T01:45:51.509Z,49.90
2022-07-28T01:48:21.590Z,49.80
2022-07-28T01:50:51.994Z,49.80
2022-07-28T01:53:21.386Z,50.40
2022-07-28T01:55:51.077Z,49.70
2022-07-28T01:58:21.330Z,49.80
2022-07-28T02:00:52.209Z,49.80
2022-07-28T02:03:23.157Z,49.80
2022-07-28T02:05:53.592Z,49.80
2022-07-28T02:08:24.474Z,49.80
2022-07-28T02:11:11.597Z,49.90
2022-07-28T02:13:40.355Z,49.80
2022-07-28T02:16:12.173Z,49.80
2022-07-28T02:18:41.523Z,49.90
2022-07-28T02:21:10.780Z,49.80
2022-07-28T02:23:40.101Z,49.90
2022-07-28T02:26:12.013Z,49.90
2022-07-28T02:28:43.037Z,50.00
2022-07-28T02:31:18.506Z,49.80
2022-07-28T02:33:58.776Z,49.90
2022-07-28T02:36:32.489Z,49.80
2022-07-28T02:39:06.305Z,49.80
2022-07-28T02:41:39.764Z,49.80
2022-07-28T02:44:16.071Z,49.90
2022-07-28T02:46:47.582Z,50.00
2022-07-28T02:49:20.248Z,49.80
2022-07-28T02:51:50.486Z,49.80
2022-07-28T02:54:20.586Z,49.70
2022-07-28T02:56:53.524Z,49.70
2022-07-28T02:59:23.244Z,49.80
2022-07-28T03:01:53.719Z,49.90
2022-07-28T03:04:37.328Z,49.80
2022-07-28T03:07:05.689Z,49.90
2022-07-28T03:09:41.795Z,49.70
2022-07-28T03:12:10.285Z,50.00
2022-07-28T03:14:38.417Z,49.70
2022-07-28T03:17:07.985Z,49.70
2022-07-28T03:19:36.622Z,49.80
2022-07-28T03:22:04.651Z,49.80
2022-07-28T03:24:37.685Z,49.90
2022-07-28T03:27:12.904Z,50.00
2022-07-28T03:29:42.474Z,50.00
2022-07-28T03:32:12.142Z,49.90
2022-07-28T03:34:40.382Z,49.80
2022-07-28T03:37:13.384Z,49.70
2022-07-28T03:39:47.607Z,49.90
2022-07-28T03:42:17.698Z,49.90
2022-07-28T03:44:47.613Z,49.80
2022-07-28T03:47:21.886Z,49.80
2022-07-28T03:49:49.915Z,49.80
2022-07-28T03:52:18.414Z,49.70
2022-07-28T03:54:46.688Z,49.80
2022-07-28T03:57:15.209Z,49.70
2022-07-28T03:59:43.158Z,49.80
2022-07-28T04:02:11.204Z,49.80
2022-07-28T04:04:40.480Z,49.90
2022-07-28T04:07:08.340Z,50.50
2022-07-28T04:09:36.213Z,49.90
2022-07-28T04:12:04.131Z,49.90
2022-07-28T04:14:32.037Z,49.90
2022-07-28T04:17:00.086Z,50.00
2022-07-28T04:19:28.141Z,50.10
2022-07-28T04:21:57.349Z,50.20
2022-07-28T04:24:25.273Z,50.20
2022-07-28T04:26:53.200Z,50.30
2022-07-28T04:29:23.306Z,50.40
2022-07-28T04:31:55.305Z,50.50
2022-07-28T04:34:24.470Z,50.70
2022-07-28T04:36:53.041Z,50.80
2022-07-28T04:39:22.246Z,50.90
2022-07-28T04:41:50.918Z,50.90
2022-07-28T04:44:18.802Z,50.90
2022-07-28T04:46:46.824Z,51.40
2022-07-28T04:49:14.994Z,50.90
2022-07-28T04:51:45.331Z,51.00
2022-07-28T04:54:13.593Z,51.00
2022-07-28T04:56:44.858Z,51.00
2022-07-28T04:59:12.977Z,51.10
2022-07-28T05:01:44.152Z,51.20
2022-07-28T05:04:12.360Z,51.30
2022-07-28T05:06:40.457Z,51.40
2022-07-28T05:09:08.388Z,52.00
2022-07-28T05:11:36.249Z,51.60
2022-07-28T05:14:05.438Z,51.70
2022-07-28T05:16:33.442Z,52.00
2022-07-28T05:19:02.098Z,52.20
2022-07-28T05:21:30.289Z,52.60
2022-07-28T05:23:58.191Z,52.80
2022-07-28T05:26:26.826Z,53.10
2022-07-28T05:28:54.721Z,53.30
2022-07-28T05:31:24.066Z,53.40
2022-07-28T05:33:51.993Z,53.60
2022-07-28T05:36:20.313Z,53.60
2022-07-28T05:38:48.204Z,53.80
2022-07-28T05:41:16.177Z,53.80
2022-07-28T05:43:44.070Z,53.90
2022-07-28T05:46:12.012Z,53.90
2022-07-28T05:48:41.367Z,54.10
2022-07-28T05:51:09.282Z,54.20
2022-07-28T05:53:37.190Z,54.20
2022-07-28T05:56:05.419Z,54.40
2022-07-28T05:58:33.333Z,54.40
2022-07-28T06:01:02.362Z,54.40
2022-07-28T06:03:33.589Z,54.50
2022-07-28T06:06:15.652Z,54.50
2022-07-28T06:08:45.573Z,54.50
2022-07-28T06:11:17.988Z,54.30
2022-07-28T06:13:50.485Z,54.30
2022-07-28T06:16:19.700Z,54.40
2022-07-28T06:18:47.686Z,54.40
2022-07-28T06:21:16.938Z,54.40
2022-07-28T06:23:45.783Z,54.40
2022-07-28T06:26:13.708Z,54.50
2022-07-28T06:28:41.598Z,54.50
2022-07-28T06:31:09.545Z,54.70
2022-07-28T06:33:37.915Z,54.90
2022-07-28T06:36:06.086Z,55.10
2022-07-28T06:38:35.339Z,55.10
2022-07-28T06:41:03.705Z,55.20
2022-07-28T06:43:34.163Z,55.10
2022-07-28T06:46:04.819Z,55.20
2022-07-28T06:48:32.697Z,55.30
2022-07-28T06:51:00.800Z,55.40
2022-07-28T06:53:33.567Z,55.60
2022-07-28T06:56:04.586Z,56.10
2022-07-28T06:58:33.213Z,56.70
2022-07-28T07:01:02.505Z,57.60
2022-07-28T07:03:30.579Z,57.90
2022-07-28T07:05:58.504Z,57.70
2022-07-28T07:08:26.488Z,57.50
2022-07-28T07:10:55.119Z,57.30
2022-07-28T07:13:24.811Z,57.30
2022-07-28T07:15:52.922Z,57.20
2022-07-28T07:18:20.821Z,57.60
2022-07-28T07:20:48.994Z,61.50
2022-07-28T07:23:16.925Z,67.00
2022-07-28T07:25:44.822Z,70.00
2022-07-28T07:28:12.725Z,70.30
2022-07-28T07:30:41.997Z,73.40
2022-07-28T07:33:10.593Z,74.40
2022-07-28T07:35:39.144Z,74.90
2022-07-28T07:38:07.112Z,75.90
2022-07-28T07:40:35.095Z,77.90
2022-07-28T07:45:31.274Z,83.60
2022-07-28T07:48:03.130Z,92.20
2022-07-28T07:50:31.413Z,85.60
2022-07-28T07:53:00.907Z,85.80
2022-07-28T07:55:34.458Z,73.00
2022-07-28T07:58:05.777Z,66.10
2022-07-28T08:00:34.018Z,64.70
2022-07-28T08:05:35.426Z,61.70
2022-07-28T08:08:05.843Z,74.40
2022-07-28T08:10:34.127Z,65.00
2022-07-28T08:17:59.908Z,56.90
2022-07-28T08:20:30.230Z,56.80
2022-07-28T08:22:58.876Z,56.20
2022-07-28T08:25:27.038Z,55.80
2022-07-28T08:30:27.520Z,63.80
2022-07-28T08:32:59.956Z,59.50
2022-07-28T08:35:33.752Z,53.70
2022-07-28T08:38:03.689Z,52.90
2022-07-28T08:40:32.786Z,52.50
2022-07-28T08:43:07.156Z,51.80
2022-07-28T08:45:37.255Z,51.40
2022-07-28T08:48:08.647Z,51.40
2022-07-28T08:50:39.250Z,51.40
2022-07-28T08:53:08.531Z,50.70
2022-07-28T08:55:37.345Z,51.20
2022-07-28T08:58:05.338Z,51.20
2022-07-28T09:03:03.636Z,50.10
2022-07-28T09:05:32.544Z,50.10
2022-07-28T09:08:02.891Z,49.90
2022-07-28T09:10:31.072Z,49.40
2022-07-28T09:12:59.013Z,49.10
2022-07-28T09:15:27.073Z,48.60
2022-07-28T09:17:55.542Z,47.80
2022-07-28T09:20:24.682Z,47.10
2022-07-28T09:22:58.144Z,46.50
2022-07-28T09:25:28.044Z,45.70
2022-07-28T09:27:56.806Z,45.60
2022-07-28T09:30:32.577Z,45.90
2022-07-28T09:33:42.295Z,45.60
2022-07-28T09:36:02.141Z,46.10
2022-07-28T09:38:41.609Z,45.40
2022-07-28T09:41:11.028Z,46.50
2022-07-28T09:43:40.357Z,43.70
2022-07-28T09:48:51.160Z,42.50
2022-07-28T09:51:20.759Z,44.10
2022-07-28T09:53:49.072Z,42.10
2022-07-28T09:56:19.030Z,42.00
2022-07-28T09:58:57.941Z,42.00
2022-07-28T10:01:29.256Z,41.70
2022-07-28T10:06:37.727Z,41.30
2022-07-28T10:09:07.749Z,41.90
2022-07-28T10:11:41.525Z,42.20
2022-07-28T10:14:09.722Z,42.10
2022-07-28T10:16:43.430Z,42.30
2022-07-28T10:19:11.551Z,42.70
2022-07-28T10:21:44.149Z,42.60
2022-07-28T10:24:21.684Z,42.60
2022-07-28T10:26:53.441Z,42.80
2022-07-28T10:29:23.193Z,42.80
2022-07-28T10:31:53.477Z,42.90
2022-07-28T10:34:24.543Z,42.90
2022-07-28T10:36:55.298Z,43.40
2022-07-28T10:39:25.976Z,43.50
2022-07-28T10:41:57.326Z,43.80
2022-07-28T10:44:26.417Z,43.90
2022-07-28T10:46:55.646Z,44.00
2022-07-28T10:49:27.579Z,44.10
2022-07-28T10:52:08.973Z,44.10
2022-07-28T10:54:48.653Z,44.40
2022-07-28T10:57:19.055Z,51.70
2022-07-28T11:00:13.626Z,51.20
2022-07-28T11:02:51.404Z,45.00
2022-07-28T11:05:36.552Z,44.40
2022-07-28T11:08:07.511Z,44.70
2022-07-28T11:10:47.197Z,46.10
2022-07-28T11:13:33.004Z,45.00
2022-07-28T11:16:20.397Z,45.00
2022-07-28T11:19:36.806Z,44.80
2022-07-28T11:22:24.931Z,44.90
2022-07-28T11:25:19.945Z,45.50
2022-07-28T11:28:07.768Z,45.50
2022-07-28T11:30:54.594Z,45.40
2022-07-28T11:33:24.710Z,46.20
2022-07-28T11:35:58.175Z,45.60
2022-07-28T11:38:26.277Z,45.60
2022-07-28T11:40:56.034Z,45.40
2022-07-28T11:43:36.552Z,45.40
2022-07-28T11:46:36.081Z,45.60
2022-07-28T11:49:32.804Z,45.40
2022-07-28T11:52:21.289Z,52.50
2022-07-28T11:54:52.922Z,47.30
2022-07-28T11:57:24.359Z,45.50
2022-07-28T11:59:54.910Z,45.40
2022-07-28T12:02:27.557Z,46.70
2022-07-28T12:07:32.794Z,45.10
2022-07-28T12:10:00.992Z,45.60
2022-07-28T12:12:29.448Z,45.60
2022-07-28T12:15:02.064Z,45.30
2022-07-28T12:17:37.803Z,45.50
2022-07-28T12:20:13.391Z,45.60
2022-07-28T12:22:54.870Z,45.30
2022-07-28T12:25:22.825Z,45.20
2022-07-28T12:27:50.857Z,45.20
2022-07-28T12:30:26.481Z,45.50
2022-07-28T12:32:58.169Z,45.80
2022-07-28T12:35:27.121Z,45.50
2022-07-28T12:37:55.215Z,45.80
2022-07-28T12:40:27.348Z,52.00
2022-07-28T12:42:55.683Z,46.00
2022-07-28T12:45:23.798Z,45.90
2022-07-28T12:47:51.817Z,45.90
2022-07-28T12:50:21.886Z,46.10
2022-07-28T12:53:05.115Z,46.10
2022-07-28T12:55:33.054Z,46.30
2022-07-28T12:58:01.634Z,45.80
2022-07-28T13:00:31.989Z,45.90
2022-07-28T13:03:01.625Z,45.80
2022-07-28T13:05:56.538Z,45.60
2022-07-28T13:08:25.469Z,45.90
2022-07-28T13:10:58.917Z,45.80
2022-07-28T13:13:27.580Z,46.00
2022-07-28T13:16:15.560Z,45.90
2022-07-28T13:18:44.467Z,46.00
2022-07-28T13:21:15.086Z,45.90
2022-07-28T13:23:43.454Z,45.80
2022-07-28T13:26:11.414Z,45.80
2022-07-28T13:28:39.596Z,45.80
2022-07-28T13:31:07.614Z,45.80
2022-07-28T13:33:35.493Z,45.90
2022-07-28T13:36:03.498Z,46.70
2022-07-28T13:38:33.513Z,46.40
2022-07-28T13:41:01.466Z,46.30
2022-07-28T13:43:35.959Z,46.20
2022-07-28T13:46:05.316Z,46.20
2022-07-28T13:48:35.701Z,46.20
2022-07-28T13:51:03.734Z,46.20
2022-07-28T13:53:33.060Z,46.10
2022-07-28T13:56:01.187Z,46.30
2022-07-28T13:58:29.111Z,46.20
2022-07-28T14:00:57.745Z,46.10
2022-07-28T14:03:26.105Z,46.20
2022-07-28T14:05:54.180Z,46.20
2022-07-28T14:08:25.390Z,46.20
2022-07-28T14:10:58.990Z,46.20
2022-07-28T14:13:28.247Z,46.40
2022-07-28T14:16:02.468Z,46.40
2022-07-28T14:18:35.814Z,46.30
2022-07-28T14:21:04.750Z,46.30
2022-07-28T14:23:32.850Z,46.20
2022-07-28T14:26:25.312Z,46.10
2022-07-28T14:28:50.066Z,46.40
2022-07-28T14:31:18.098Z,46.30
2022-07-28T14:33:52.319Z,46.40
2022-07-28T14:36:22.354Z,46.60
2022-07-28T14:38:54.012Z,46.60
2022-07-28T14:41:24.958Z,46.50
2022-07-28T14:43:52.997Z,46.50
2022-07-28T14:46:22.088Z,46.50
2022-07-28T14:48:57.502Z,46.50
2022-07-28T14:51:25.446Z,46.40
2022-07-28T14:53:55.182Z,46.60
2022-07-28T14:56:24.472Z,46.50
2022-07-28T14:58:52.479Z,46.30
2022-07-28T15:01:20.451Z,46.30
2022-07-28T15:03:48.398Z,46.40
2022-07-28T15:06:16.314Z,46.40
2022-07-28T15:08:44.193Z,46.50
2022-07-28T15:11:12.065Z,46.40
2022-07-28T15:13:41.271Z,46.30
2022-07-28T15:16:09.681Z,46.30
2022-07-28T15:18:37.620Z,46.70
2022-07-28T15:21:08.109Z,47.00
2022-07-28T15:23:36.468Z,46.40
2022-07-28T15:26:04.346Z,46.30
2022-07-28T15:28:32.749Z,46.40
2022-07-28T15:31:02.178Z,46.50
2022-07-28T15:33:30.557Z,46.60
2022-07-28T15:36:00.674Z,46.60
2022-07-28T15:38:31.583Z,46.60
2022-07-28T15:41:00.227Z,46.60
2022-07-28T15:43:28.356Z,46.50
2022-07-28T15:45:57.478Z,46.60
2022-07-28T15:48:26.741Z,46.80
2022-07-28T15:50:54.654Z,46.70
2022-07-28T15:53:22.558Z,46.70
2022-07-28T15:55:51.657Z,46.70
2022-07-28T15:58:19.878Z,46.60
2022-07-28T16:00:47.839Z,46.50
2022-07-28T16:03:16.003Z,46.60
2022-07-28T16:05:49.393Z,46.50
2022-07-28T16:08:17.930Z,46.50
2022-07-28T16:10:46.155Z,46.40
2022-07-28T16:13:17.227Z,46.50
2022-07-28T16:15:50.873Z,46.60
2022-07-28T16:18:19.206Z,46.60
2022-07-28T16:20:48.539Z,46.70
2022-07-28T16:23:16.583Z,46.60
2022-07-28T16:25:45.242Z,46.60
2022-07-28T16:28:13.458Z,46.50
2022-07-28T16:30:41.438Z,46.40
2022-07-28T16:33:09.666Z,46.40
2022-07-28T16:35:37.573Z,46.50
2022-07-28T16:38:07.616Z,46.60
2022-07-28T16:40:35.537Z,46.60
2022-07-28T16:43:06.094Z,47.20
2022-07-28T16:45:37.073Z,46.70
2022-07-28T16:48:05.162Z,46.80
2022-07-28T16:50:33.665Z,46.80
2022-07-28T16:53:04.186Z,46.80
2022-07-28T16:55:33.448Z,46.80
2022-07-28T16:58:01.325Z,46.80
2022-07-28T17:00:29.997Z,46.70
2022-07-28T17:02:57.997Z,46.70
2022-07-28T17:05:25.912Z,46.60
2022-07-28T17:07:53.835Z,46.60
2022-07-28T17:10:27.536Z,46.50
2022-07-28T17:12:58.487Z,46.60
2022-07-28T17:15:26.639Z,46.70
2022-07-28T17:17:55.887Z,46.60
2022-07-28T17:20:25.273Z,46.50
2022-07-28T17:22:53.193Z,46.50
2022-07-28T17:28:10.532Z,46.60
2022-07-28T17:30:39.320Z,46.60
2022-07-28T17:33:08.867Z,46.60
2022-07-28T17:35:38.068Z,46.50
2022-07-28T17:38:09.093Z,46.50
2022-07-28T17:40:38.177Z,46.50
2022-07-28T17:43:06.190Z,46.50
2022-07-28T17:45:35.465Z,46.50
2022-07-28T17:48:03.356Z,46.50
2022-07-28T17:50:31.364Z,46.50
2022-07-28T17:52:59.381Z,46.50
2022-07-28T17:55:57.917Z,46.50
2022-07-28T17:58:27.976Z,46.40
2022-07-28T18:01:10.684Z,56.40
2022-07-28T18:03:58.756Z,55.70
2022-07-28T18:06:29.753Z,50.20
2022-07-28T18:08:58.821Z,47.30
2022-07-28T18:11:36.071Z,47.70
2022-07-28T18:14:05.657Z,50.20
2022-07-28T18:16:35.070Z,51.50
2022-07-28T18:19:03.111Z,52.60
2022-07-28T18:23:59.225Z,46.10
2022-07-28T18:26:27.145Z,46.70
2022-07-28T18:28:55.165Z,46.70
2022-07-28T18:31:23.276Z,46.80
2022-07-28T18:33:52.588Z,46.90
2022-07-28T18:36:20.479Z,47.00
2022-07-28T18:38:48.361Z,47.00
2022-07-28T18:41:16.306Z,46.90
2022-07-28T18:43:44.156Z,46.80
2022-07-28T18:46:12.121Z,46.90
2022-07-28T18:48:40.125Z,46.90
2022-07-28T18:51:09.578Z,47.00
2022-07-28T18:53:37.622Z,47.10
2022-07-28T18:56:05.989Z,47.00
2022-07-28T18:58:33.842Z,47.20
2022-07-28T19:01:01.762Z,47.20
2022-07-28T19:03:32.264Z,47.30
2022-07-28T19:06:00.179Z,47.50
2022-07-28T19:08:29.520Z,47.50
2022-07-28T19:10:57.440Z,47.80
2022-07-28T19:13:25.321Z,47.70
2022-07-28T19:15:53.286Z,47.80
2022-07-28T19:18:21.239Z,47.90
2022-07-28T19:20:49.144Z,47.90
2022-07-28T19:23:19.133Z,48.00
2022-07-28T19:25:48.355Z,48.00
2022-07-28T19:28:16.261Z,48.10
2022-07-28T19:30:45.108Z,48.10
2022-07-28T19:33:18.866Z,48.10
2022-07-28T19:35:47.077Z,48.20
2022-07-28T19:38:15.006Z,48.30
2022-07-28T19:40:43.256Z,48.40
2022-07-28T19:43:12.573Z,48.40
2022-07-28T19:45:40.547Z,48.50
2022-07-28T19:48:08.779Z,48.40
2022-07-28T19:50:37.102Z,48.50
2022-07-28T19:53:05.402Z,48.40
2022-07-28T19:55:36.158Z,48.50
2022-07-28T19:58:04.304Z,48.40
2022-07-28T20:00:34.090Z,48.50
2022-07-28T20:03:02.196Z,48.60
2022-07-28T20:05:30.281Z,48.50
2022-07-28T20:07:58.206Z,48.50
2022-07-28T20:10:26.102Z,48.50
2022-07-28T20:12:54.967Z,48.50
2022-07-28T20:15:23.056Z,48.40
2022-07-28T20:17:52.322Z,48.30
2022-07-28T20:20:20.578Z,48.40
2022-07-28T20:22:48.707Z,48.30
2022-07-28T20:25:16.710Z,48.30
2022-07-28T20:27:45.222Z,48.30
2022-07-28T20:30:14.582Z,48.30
2022-07-28T20:32:44.136Z,48.40
2022-07-28T20:35:13.776Z,48.40
2022-07-28T20:37:41.678Z,48.40
2022-07-28T20:40:11.866Z,48.30
2022-07-28T20:42:40.330Z,48.20
2022-07-28T20:45:08.919Z,48.10
2022-07-28T20:47:37.099Z,48.10
2022-07-28T20:50:06.992Z,48.10
2022-07-28T20:52:36.264Z,48.30
2022-07-28T20:55:04.421Z,48.30
2022-07-28T20:57:32.361Z,48.20
2022-07-28T21:00:00.475Z,48.10
2022-07-28T21:02:28.413Z,48.10
2022-07-28T21:04:56.370Z,48.00
2022-07-28T21:08:05.157Z,47.90
2022-07-28T21:10:13.702Z,47.90
2022-07-28T21:12:41.596Z,47.90
2022-07-28T21:15:10.886Z,47.80
2022-07-28T21:17:38.867Z,47.90
2022-07-28T21:20:07.645Z,47.80
2022-07-28T21:22:35.525Z,47.80
2022-07-28T21:25:03.470Z,47.80
2022-07-28T21:27:52.693Z,47.70
2022-07-28T21:30:19.761Z,47.80
2022-07-28T21:32:55.774Z,47.60
2022-07-28T21:35:23.743Z,47.50
2022-07-28T21:37:51.738Z,47.60
2022-07-28T21:40:19.656Z,47.60
2022-07-28T21:42:48.961Z,47.70
2022-07-28T21:45:16.857Z,47.70
2022-07-28T21:47:44.770Z,47.70
2022-07-28T21:50:13.147Z,47.70
2022-07-28T21:52:41.192Z,47.70
2022-07-28T21:55:10.331Z,47.70
2022-07-28T21:57:38.305Z,47.80
2022-07-28T22:00:10.982Z,47.80
2022-07-28T22:02:39.018Z,47.80
2022-07-28T22:05:09.551Z,47.80
2022-07-28T22:07:37.571Z,47.80
2022-07-28T22:10:06.445Z,47.80
2022-07-28T22:12:34.352Z,47.80
2022-07-28T22:15:02.264Z,47.80
2022-07-28T22:17:31.506Z,47.80
2022-07-28T22:20:00.496Z,47.90
2022-07-28T22:22:28.404Z,47.90
2022-07-28T22:24:56.317Z,47.80
2022-07-28T22:27:24.656Z,47.90
2022-07-28T22:29:52.960Z,47.90
2022-07-28T22:32:27.027Z,47.90
2022-07-28T22:34:58.754Z,47.90
2022-07-28T22:37:26.682Z,47.90
2022-07-28T22:39:55.684Z,48.00
2022-07-28T22:42:23.605Z,48.00
2022-07-28T22:44:51.727Z,48.00
2022-07-28T22:47:19.633Z,48.10
2022-07-28T22:49:47.648Z,48.10
2022-07-28T22:52:16.911Z,48.00
2022-07-28T22:54:44.850Z,48.10
2022-07-28T22:57:12.782Z,48.10
2022-07-28T22:59:40.636Z,48.10
2022-07-28T23:02:09.648Z,48.10
2022-07-28T23:04:39.528Z,48.10
2022-07-28T23:07:12.268Z,48.10
2022-07-28T23:09:43.034Z,48.20
2022-07-28T23:12:11.981Z,48.30
2022-07-28T23:14:40.090Z,48.20
2022-07-28T23:17:07.997Z,48.20
2022-07-28T23:19:35.935Z,48.10
2022-07-28T23:22:04.877Z,48.10
2022-07-28T23:24:32.766Z,48.10
2022-07-28T23:27:02.026Z,48.20
2022-07-28T23:29:29.894Z,48.20
2022-07-28T23:31:57.868Z,48.10
2022-07-28T23:34:25.753Z,48.20
2022-07-28T23:36:53.647Z,48.10
2022-07-28T23:39:21.591Z,48.20
2022-07-28T23:41:49.461Z,48.10
2022-07-28T23:44:19.318Z,48.10
2022-07-28T23:46:47.292Z,48.20
2022-07-28T23:49:15.571Z,48.10
2022-07-28T23:51:48.531Z,48.10
2022-07-28T23:54:17.385Z,48.10
2022-07-28T23:56:45.699Z,48.10
2022-07-28T23:59:14.665Z,48.10
